Main page
METAR-TAF:

METAR-TAF

Airports :

Altenburg, Germany

Leipzig–Altenburg Airport

latitude: 50-58N, longitude: 012-30E, elevation: 195 m

Current weather observation

The report was made 17 hours and 27 minutes ago, at 16:20 UTC
Wind 4 kt from the South/Southeast
Temperature 1°C
Humidity 93%
Pressure 1008 hPa
Visibility: 4000 m
Few clouds at a height of 800 ft
Overcast at a height of 1700 ft
light snow

METAR: EDAC 221620Z 16004KT 4000 -SN FEW008 OVC017 01/00 Q1008

Time: 10:47 (09:47 UTC)

Forecast

The report was made 16 hours and 47 minutes ago, at 17:00 UTC
Forecast valid from 22 at 18 UTC to 23 at 03 UTC
Wind 8 kt from the South
Visibility: 8000 m
Overcast at a height of 1500 ft
Becoming
from 22 at 18 UTC to 22 at 19 UTC
Wind 10 kt from the West/Southwest
Temporary
from 22 at 18 UTC to 23 at 03 UTC
Visibility: 2500 m
Broken clouds at a height of 900 ft
light rain, snow

TAF: EDAC 221700Z 2218/2303 17008KT 8000 OVC015 BECMG 2218/2219 25010KT TEMPO 2218/2303 2500 -RASN BKN009

Weather observations and forecasts of more than 4000 airports (METAR and TAF reports).

The available stations are represented by yellow and red dots on the map.

Hover mouse over dot to see the name of the station.

Then click to see weather observations and forecasts.

To change the map : click on the green buttons with a black cross to zoom in, on the green button with a dash to zoom out, or on the green arrows for adjacent maps.


METAR-TAF: